Time;durP1;ratioP1;P1;durP2;ratioP2;P2;SDS_P1;SDS_P2;PMS_P1;PMS_P2;Temp;Humidity;BMP_temperature;BMP_pressure;BME280_temperature;BME280_humidity;BME280_pressure;Samples;Min_cycle;Max_cycle;Signal;HPM_P1;HPM_P2
2022/11/20 00:00:17;;;;;;;15.40;9.93;;;;;;;-0.81;77.74;100426.52;1788472;79;20905;-79
2022/11/20 00:03:02;;;;;;;15.75;10.25;;;;;;;-0.79;77.81;100429.09;1790854;78;20867;-79
2022/11/20 00:05:47;;;;;;;14.95;9.10;;;;;;;-0.78;77.82;100431.67;1790836;79;20866;-79
2022/11/20 00:08:32;;;;;;;11.60;8.43;;;;;;;-0.78;77.77;100429.13;1790944;79;20859;-79
2022/11/20 00:11:20;;;;;;;12.05;7.83;;;;;;;-0.78;77.78;100432.94;1791714;79;21272;-78
2022/11/20 00:14:05;;;;;;;13.95;8.30;;;;;;;-0.76;77.79;100435.11;1792286;79;21335;-78
2022/11/20 00:16:50;;;;;;;12.73;8.58;;;;;;;-0.77;77.80;100429.58;1791444;79;20918;-79
2022/11/20 00:19:35;;;;;;;13.80;8.58;;;;;;;-0.77;77.85;100431.27;1791759;79;20855;-78
2022/11/20 00:22:20;;;;;;;10.80;8.63;;;;;;;-0.78;77.85;100431.67;1790722;78;20870;-78
2022/11/20 00:25:05;;;;;;;11.22;8.20;;;;;;;-0.77;77.90;100433.80;1793584;79;20887;-78
2022/11/20 00:27:51;;;;;;;12.43;7.45;;;;;;;-0.77;77.93;100437.61;1793502;79;20863;-79
2022/11/20 00:30:35;;;;;;;13.95;9.18;;;;;;;-0.77;77.95;100440.15;1778402;79;21293;-78
2022/11/20 00:33:20;;;;;;;13.40;9.00;;;;;;;-0.77;77.96;100435.06;1785989;77;20898;-78
2022/11/20 00:36:08;;;;;;;12.25;8.80;;;;;;;-0.77;78.04;100437.20;1793846;79;20918;-79
2022/11/20 00:38:56;;;;;;;13.05;9.03;;;;;;;-0.75;78.09;100434.70;1773439;79;21327;-79
2022/11/20 00:41:41;;;;;;;10.55;8.58;;;;;;;-0.73;78.08;100435.60;1794604;79;20878;-79
2022/11/20 00:44:25;;;;;;;14.68;9.70;;;;;;;-0.72;78.09;100436.05;1795987;79;20914;-78
2022/11/20 00:47:10;;;;;;;12.95;9.20;;;;;;;-0.73;78.11;100436.46;1792778;79;21362;-79
2022/11/20 00:49:56;;;;;;;12.87;9.80;;;;;;;-0.72;78.10;100445.80;1792750;78;20862;-78
2022/11/20 00:55:20;;;;;;;14.70;11.10;;;;;;;-0.70;78.04;100442.89;1806052;78;22166;-76
2022/11/20 00:58:05;;;;;;;16.55;11.22;;;;;;;-0.73;78.15;100442.81;1765986;78;21097;-76
2022/11/20 01:00:51;;;;;;;14.77;11.27;;;;;;;-0.71;78.19;100444.12;1764953;79;21078;-75
2022/11/20 01:03:40;;;;;;;20.05;12.63;;;;;;;-0.71;78.18;100447.52;1767855;79;21056;-75
2022/11/20 01:06:33;;;;;;;20.88;13.18;;;;;;;-0.72;78.20;100448.34;1763835;79;20957;-76
2022/11/20 01:09:17;;;;;;;20.10;12.88;;;;;;;-0.70;78.22;100447.11;1762190;78;21022;-76
2022/11/20 01:12:03;;;;;;;19.63;13.50;;;;;;;-0.70;78.24;100452.19;1746092;80;20940;-76
2022/11/20 01:14:48;;;;;;;19.00;11.97;;;;;;;-0.71;78.22;100446.66;1741636;80;20971;-76
2022/11/20 01:17:33;;;;;;;14.13;10.75;;;;;;;-0.73;78.19;100452.10;1756941;78;20963;-76
2022/11/20 01:20:18;;;;;;;22.63;12.93;;;;;;;-0.73;78.23;100450.83;1763670;79;21425;-75
2022/11/20 01:23:04;;;;;;;18.10;12.10;;;;;;;-0.75;78.28;100448.25;1764163;80;21573;-76
2022/11/20 01:25:49;;;;;;;20.08;12.40;;;;;;;-0.75;78.30;100444.86;1762573;79;21547;-76
2022/11/20 01:28:34;;;;;;;15.23;10.75;;;;;;;-0.76;78.29;100446.94;1760597;78;21020;-76
2022/11/20 01:31:23;;;;;;;18.45;11.80;;;;;;;-0.77;78.32;100447.77;1762367;79;21561;-76
2022/11/20 01:34:16;;;;;;;20.40;12.40;;;;;;;-0.76;78.38;100446.94;1761140;80;21101;-75
2022/11/20 01:37:01;;;;;;;19.62;13.72;;;;;;;-0.76;78.38;100443.13;1763615;80;21058;-76
2022/11/20 01:39:47;;;;;;;20.52;14.25;;;;;;;-0.76;78.38;100449.48;1763658;79;21116;-76
2022/11/20 01:46:05;;;;;;;18.92;13.62;;;;;;;-0.77;78.38;100444.81;1759770;80;20959;-76
2022/11/20 01:49:22;;;;;;;19.45;12.88;;;;;;;-0.78;78.41;100448.17;1762564;79;20888;-76
2022/11/20 01:52:23;;;;;;;18.40;12.35;;;;;;;-0.78;78.39;100453.66;1762074;80;21047;-76
2022/11/20 01:55:14;;;;;;;17.95;12.90;;;;;;;-0.79;78.42;100448.13;1762438;79;21102;-77
2022/11/20 01:58:01;;;;;;;21.73;13.72;;;;;;;-0.80;78.42;100441.33;1761227;79;22638;-77
2022/11/20 02:00:46;;;;;;;20.62;13.18;;;;;;;-0.81;78.44;100435.80;1753040;80;21046;-77
2022/11/20 02:03:32;;;;;;;19.07;12.80;;;;;;;-0.80;78.47;100441.33;1750754;80;21029;-77
2022/11/20 02:06:36;;;;;;;16.60;12.10;;;;;;;-0.90;78.42;100419.06;1751170;80;21591;-76
2022/11/20 02:09:21;;;;;;;17.48;11.48;;;;;;;-0.82;78.49;100434.08;1751162;79;21019;-76
2022/11/20 02:13:42;;;;;;;18.37;11.30;;;;;;;-0.81;78.51;100439.61;1751912;80;21079;-76
2022/11/20 02:14:53;;;;;;;16.85;11.10;;;;;;;-0.80;78.51;100434.98;1747166;80;21079;-77
2022/11/20 02:17:38;;;;;;;16.43;11.40;;;;;;;-0.80;78.54;100430.77;1750857;81;21574;-77
2022/11/20 02:20:23;;;;;;;16.17;10.72;;;;;;;-0.81;78.54;100434.13;1751540;80;21083;-76
2022/11/20 02:23:25;;;;;;;17.87;10.67;;;;;;;-0.81;78.53;100435.39;1749453;80;21038;-76
2022/11/20 02:26:14;;;;;;;14.30;10.25;;;;;;;-0.81;78.57;100432.86;1758389;80;21102;-76
2022/11/20 02:29:01;;;;;;;15.15;10.15;;;;;;;-0.81;78.56;100430.73;1762546;80;21026;-76
2022/11/20 02:31:46;;;;;;;12.63;9.78;;;;;;;-0.81;78.57;100427.78;1753579;79;20904;-76
2022/11/20 02:34:31;;;;;;;15.03;9.78;;;;;;;-0.81;78.56;100426.92;1753728;79;21443;-76
2022/11/20 02:37:17;;;;;;;13.43;9.60;;;;;;;-0.82;78.57;100422.66;1751248;79;20952;-76
2022/11/20 02:40:01;;;;;;;15.48;10.98;;;;;;;-0.82;78.56;100422.25;1755210;79;20920;-77
2022/11/20 02:42:46;;;;;;;16.05;10.72;;;;;;;-0.82;78.58;100429.01;1752827;80;20897;-76
2022/11/20 02:45:31;;;;;;;16.00;10.43;;;;;;;-0.82;78.63;100434.95;1754413;80;20892;-77
2022/11/20 02:48:16;;;;;;;14.53;10.55;;;;;;;-0.81;78.63;100431.59;1752623;80;21378;-77
2022/11/20 02:51:01;;;;;;;16.07;10.82;;;;;;;-0.80;78.66;100433.72;1748678;79;21304;-76
2022/11/20 02:53:46;;;;;;;16.82;11.05;;;;;;;-0.78;78.67;100425.73;1752089;80;21381;-76
2022/11/20 02:56:32;;;;;;;20.30;13.08;;;;;;;-0.76;78.65;100430.44;1763313;80;21467;-77
2022/11/20 02:59:16;;;;;;;19.77;14.28;;;;;;;-0.77;78.66;100427.45;1764292;80;21740;-76
2022/11/20 03:02:01;;;;;;;17.77;13.08;;;;;;;-0.77;78.70;100428.31;1758536;79;20944;-76
2022/11/20 03:04:46;;;;;;;22.15;14.30;;;;;;;-0.77;78.68;100428.31;1764549;79;20908;-76
2022/11/20 03:07:31;;;;;;;20.05;14.10;;;;;;;-0.75;78.74;100429.63;1760385;79;21397;-76
2022/11/20 03:10:16;;;;;;;20.33;13.70;;;;;;;-0.74;78.73;100431.34;1765232;79;22040;-76
2022/11/20 03:13:01;;;;;;;20.77;13.05;;;;;;;-0.72;78.75;100425.89;1766411;80;20920;-76
2022/11/20 03:15:46;;;;;;;15.90;12.28;;;;;;;-0.70;78.75;100429.34;1761982;80;20911;-76
2022/11/20 03:18:31;;;;;;;16.65;11.97;;;;;;;-0.71;78.78;100432.28;1764928;79;21459;-77
2022/11/20 03:21:16;;;;;;;19.35;13.78;;;;;;;-0.70;78.79;100428.92;1760675;80;20903;-76
2022/11/20 03:24:01;;;;;;;17.00;13.35;;;;;;;-0.69;78.80;100434.86;1766351;79;21317;-76
2022/11/20 03:26:46;;;;;;;19.25;12.68;;;;;;;-0.68;78.83;100426.02;1763830;79;21503;-77
2022/11/20 03:29:31;;;;;;;17.67;13.83;;;;;;;-0.67;78.82;100429.01;1763719;78;20876;-76
2022/11/20 03:32:16;;;;;;;19.35;12.98;;;;;;;-0.64;78.85;100426.09;1762701;79;21507;-77
2022/11/20 03:35:01;;;;;;;16.15;11.88;;;;;;;-0.63;78.87;100421.47;1762812;78;21389;-77
2022/11/20 03:37:46;;;;;;;17.07;11.22;;;;;;;-0.62;78.86;100424.46;1764692;80;20921;-76
2022/11/20 03:40:31;;;;;;;15.28;11.57;;;;;;;-0.63;78.88;100418.52;1762726;80;20907;-76
2022/11/20 03:43:16;;;;;;;19.02;11.73;;;;;;;-0.61;78.85;100417.30;1740632;80;20965;-77
2022/11/20 03:46:01;;;;;;;18.02;11.53;;;;;;;-0.63;78.84;100418.93;1763967;80;20944;-77
2022/11/20 03:48:46;;;;;;;21.77;13.72;;;;;;;-0.62;78.89;100417.70;1737565;80;20953;-77
2022/11/20 03:51:34;;;;;;;16.15;11.88;;;;;;;-0.62;78.92;100418.97;1762291;80;20995;-76
2022/11/20 03:54:19;;;;;;;18.25;12.65;;;;;;;-0.61;78.92;100419.42;1763903;80;21122;-76
2022/11/20 03:57:04;;;;;;;20.97;13.30;;;;;;;-0.62;78.91;100417.70;1754276;80;21479;-76
2022/11/20 03:59:49;;;;;;;19.35;13.70;;;;;;;-0.61;78.92;100410.53;1755967;80;20931;-76
2022/11/20 04:02:34;;;;;;;19.37;13.25;;;;;;;-0.61;78.94;100412.21;1754650;81;21487;-77
2022/11/20 04:05:19;;;;;;;17.60;13.20;;;;;;;-0.61;78.99;100406.73;1756216;80;21480;-76
2022/11/20 04:08:05;;;;;;;22.35;14.10;;;;;;;-0.59;78.98;100410.16;1756456;80;20880;-76
2022/11/20 04:10:50;;;;;;;20.72;13.88;;;;;;;-0.59;78.98;100410.57;1751779;79;20896;-77
2022/11/20 04:13:35;;;;;;;19.55;13.88;;;;;;;-0.60;78.97;100412.66;1754407;80;20947;-76
2022/11/20 04:16:21;;;;;;;18.15;13.20;;;;;;;-0.60;78.99;100421.14;1755128;80;20945;-76
2022/11/20 04:19:10;;;;;;;20.35;14.30;;;;;;;-0.59;79.02;100415.66;1750553;81;20934;-77
2022/11/20 04:21:55;;;;;;;20.92;14.38;;;;;;;-0.59;79.07;100406.36;1756264;80;20930;-77
2022/11/20 04:24:40;;;;;;;20.55;14.83;;;;;;;-0.58;79.04;100405.53;1755230;81;21817;-76
2022/11/20 04:27:25;;;;;;;27.90;16.00;;;;;;;-0.58;79.05;100404.27;1751557;79;21480;-77
2022/11/20 04:30:11;;;;;;;23.73;16.00;;;;;;;-0.57;79.07;100404.72;1751193;80;21497;-77
2022/11/20 04:32:56;;;;;;;20.85;15.65;;;;;;;-0.55;79.09;100401.80;1753407;80;20923;-77
2022/11/20 04:35:43;;;;;;;21.02;14.93;;;;;;;-0.54;79.08;100396.31;1752361;81;20893;-76
2022/11/20 04:38:27;;;;;;;22.80;14.80;;;;;;;-0.54;79.06;100397.58;1754652;80;21420;-76
2022/11/20 04:41:19;;;;;;;23.57;15.55;;;;;;;-0.54;79.11;100394.64;1747955;80;21539;-76
2022/11/20 04:44:05;;;;;;;19.30;14.53;;;;;;;-0.56;79.08;100400.49;1755216;80;20892;-76
2022/11/20 04:46:50;;;;;;;20.05;13.80;;;;;;;-0.57;79.13;100398.36;1754435;80;20972;-77
2022/11/20 04:49:35;;;;;;;21.07;13.55;;;;;;;-0.56;79.17;100402.63;1754521;81;20947;-77
2022/11/20 04:52:20;;;;;;;17.35;13.00;;;;;;;-0.55;79.15;100397.13;1753662;80;20919;-77
2022/11/20 04:55:06;;;;;;;16.85;12.13;;;;;;;-0.56;79.13;100397.95;1751998;80;21500;-77
2022/11/20 04:57:51;;;;;;;14.18;11.57;;;;;;;-0.57;79.14;100398.78;1753413;80;20896;-77
2022/11/20 05:00:36;;;;;;;14.78;11.05;;;;;;;-0.57;79.19;100394.55;1751554;81;20959;-77
2022/11/20 05:03:21;;;;;;;15.45;11.50;;;;;;;-0.56;79.22;100392.47;1735964;80;21400;-77
2022/11/20 05:06:07;;;;;;;16.00;11.73;;;;;;;-0.55;79.19;100392.05;1752575;80;21392;-77
2022/11/20 05:08:52;;;;;;;19.30;12.33;;;;;;;-0.58;79.16;100393.25;1756030;80;20908;-76
2022/11/20 05:11:37;;;;;;;15.40;10.82;;;;;;;-0.58;79.23;100395.38;1757406;78;20923;-76
2022/11/20 05:14:22;;;;;;;16.50;11.33;;;;;;;-0.58;79.23;100395.79;1752276;80;20933;-76
2022/11/20 05:17:11;;;;;;;17.12;11.75;;;;;;;-0.60;79.22;100396.16;1751157;79;20880;-76
2022/11/20 05:19:55;;;;;;;15.70;11.28;;;;;;;-0.58;79.31;100389.44;1737023;81;21569;-76
2022/11/20 05:22:40;;;;;;;16.87;12.78;;;;;;;-0.58;79.27;100387.76;1737374;80;20912;-77
2022/11/20 05:25:25;;;;;;;16.35;11.73;;;;;;;-0.58;79.29;100399.19;1739823;81;20896;-76
2022/11/20 05:28:10;;;;;;;17.87;12.78;;;;;;;-0.59;79.31;100398.73;1751778;80;20896;-77
2022/11/20 05:30:55;;;;;;;19.20;12.63;;;;;;;-0.57;79.34;100399.63;1752967;80;20911;-77
2022/11/20 05:33:42;;;;;;;18.12;12.50;;;;;;;-0.56;79.34;100397.55;1752614;80;21404;-76
2022/11/20 05:36:27;;;;;;;17.20;12.25;;;;;;;-0.56;79.36;100395.01;1753879;79;21343;-76
2022/11/20 05:39:12;;;;;;;19.20;13.48;;;;;;;-0.55;79.36;100388.25;1753781;80;20892;-76
2022/11/20 05:45:04;;;;;;;20.40;13.93;;;;;;;-0.56;79.36;100392.87;1752653;81;20916;-76
2022/11/20 05:47:48;;;;;;;20.92;13.68;;;;;;;-0.57;79.40;100390.75;1753082;80;21323;-76
2022/11/20 05:50:33;;;;;;;24.85;14.38;;;;;;;-0.56;79.42;100395.01;1756561;80;20931;-76
2022/11/20 05:53:18;;;;;;;22.30;14.45;;;;;;;-0.55;79.42;100394.19;1754472;80;20907;-77
2022/11/20 05:56:10;;;;;;;21.35;13.65;;;;;;;-0.55;79.46;100395.45;1751093;80;21316;-77
2022/11/20 05:58:56;;;;;;;21.37;13.53;;;;;;;-0.53;79.48;100396.77;1711448;82;20964;-77
2022/11/20 06:01:42;;;;;;;20.82;13.85;;;;;;;-0.52;79.47;100398.48;1683681;83;21897;-77
2022/11/20 06:04:27;;;;;;;24.43;15.28;;;;;;;-0.52;79.52;100392.13;1691699;83;20950;-77
2022/11/20 06:07:12;;;;;;;25.30;15.58;;;;;;;-0.52;79.55;100387.88;1674125;83;21561;-76
2022/11/20 06:09:57;;;;;;;22.70;14.98;;;;;;;-0.49;79.57;100394.72;1706404;81;21338;-76
2022/11/20 06:12:42;;;;;;;21.02;14.80;;;;;;;-0.50;79.55;100386.23;1713532;81;20968;-77
2022/11/20 06:15:27;;;;;;;23.05;14.75;;;;;;;-0.48;79.56;100391.36;1713693;81;20960;-77
2022/11/20 06:18:12;;;;;;;27.73;16.60;;;;;;;-0.49;79.55;100383.28;1716926;81;20952;-77
2022/11/20 06:21:05;;;;;;;23.62;15.03;;;;;;;-0.49;79.57;100388.37;1709541;81;21326;-76
2022/11/20 06:23:52;;;;;;;28.20;16.82;;;;;;;-0.48;79.59;100392.22;1693011;83;21030;-76
2022/11/20 06:26:37;;;;;;;26.48;16.25;;;;;;;-0.48;79.59;100396.44;1744582;81;20893;-76
2022/11/20 06:29:22;;;;;;;25.82;16.80;;;;;;;-0.47;79.61;100398.16;1751201;81;20904;-76
2022/11/20 06:32:07;;;;;;;24.87;16.42;;;;;;;-0.47;79.65;100389.27;1750653;80;21409;-76
2022/11/20 06:34:52;;;;;;;31.52;17.80;;;;;;;-0.46;79.65;100392.25;1748338;80;20923;-76
2022/11/20 06:37:37;;;;;;;28.57;16.48;;;;;;;-0.46;79.65;100391.84;1745662;81;20961;-77
2022/11/20 06:40:22;;;;;;;26.77;17.20;;;;;;;-0.46;79.66;100391.84;1744585;80;21464;-77
2022/11/20 06:43:08;;;;;;;29.40;17.50;;;;;;;-0.46;79.69;100389.30;1748460;80;21027;-77
2022/11/20 06:45:57;;;;;;;28.55;17.05;;;;;;;-0.44;79.73;100395.28;1744916;79;21547;-77
2022/11/20 06:48:43;;;;;;;29.87;18.57;;;;;;;-0.42;79.73;100396.59;1747396;80;21508;-76
2022/11/20 06:51:27;;;;;;;30.48;18.37;;;;;;;-0.41;79.74;100399.58;1746829;79;20925;-76
2022/11/20 06:54:12;;;;;;;31.53;18.83;;;;;;;-0.41;79.70;100396.63;1746892;79;20904;-76
2022/11/20 06:56:57;;;;;;;28.52;17.00;;;;;;;-0.41;79.75;100396.63;1752460;79;20901;-77
2022/11/20 06:59:42;;;;;;;29.27;16.45;;;;;;;-0.41;79.79;100394.09;1761285;80;21502;-77
2022/11/20 07:02:31;;;;;;;25.00;16.48;;;;;;;-0.41;79.76;100390.69;1753919;79;21098;-77
2022/11/20 07:05:17;;;;;;;23.57;15.85;;;;;;;-0.40;79.81;100390.72;1755049;79;21644;-76
2022/11/20 07:08:03;;;;;;;;;;;;;;;-0.39;79.80;100383.97;1756007;80;21551;-77
2022/11/20 07:10:48;;;;;;;21.52;14.23;;;;;;;-0.39;79.97;100383.55;1752386;80;20185;-77
2022/11/20 07:13:33;;;;;;;23.15;15.13;;;;;;;-0.37;79.89;100379.78;1753920;79;21077;-77
2022/11/20 07:16:18;;;;;;;20.00;14.58;;;;;;;-0.36;79.90;100384.90;1752146;79;21551;-76
2022/11/20 07:19:03;;;;;;;23.50;14.30;;;;;;;-0.35;79.93;100379.00;1750780;79;21544;-77
2022/11/20 07:21:48;;;;;;;20.70;14.50;;;;;;;-0.32;79.99;100378.63;1749924;79;21578;-76
2022/11/20 07:24:33;;;;;;;19.32;12.88;;;;;;;-0.29;79.98;100373.61;1756208;79;21469;-76
2022/11/20 07:27:19;;;;;;;18.98;13.98;;;;;;;-0.31;79.96;100374.84;1753872;79;21153;-77
2022/11/20 07:30:05;;;;;;;17.45;13.08;;;;;;;-0.29;79.93;100371.08;1737931;79;41425;-76
2022/11/20 07:32:55;;;;;;;19.82;13.45;;;;;;;-0.28;79.95;100369.84;1600581;87;20992;-76
2022/11/20 07:35:39;;;;;;;20.85;14.07;;;;;;;-0.26;80.00;100364.80;1577643;87;21093;-76
2022/11/20 07:38:24;;;;;;;17.75;12.70;;;;;;;-0.24;79.97;100366.55;1641304;83;20985;-77
2022/11/20 07:41:09;;;;;;;18.82;13.50;;;;;;;-0.22;80.01;100362.77;1657878;84;20953;-76
2022/11/20 07:43:54;;;;;;;18.80;12.85;;;;;;;-0.18;80.02;100366.69;1660933;84;21480;-76
2022/11/20 07:46:39;;;;;;;21.87;13.75;;;;;;;-0.17;79.95;100368.41;1658179;84;20958;-77
2022/11/20 07:49:24;;;;;;;18.48;12.25;;;;;;;-0.18;79.98;100365.83;1659662;84;20929;-76
2022/11/20 07:52:09;;;;;;;18.37;12.93;;;;;;;-0.18;80.00;100370.92;1656618;84;20960;-76
2022/11/20 07:54:54;;;;;;;21.03;13.33;;;;;;;-0.18;80.03;100367.96;1654154;84;20921;-76
2022/11/20 07:57:40;;;;;;;23.18;12.98;;;;;;;-0.15;80.07;100361.68;1653351;85;20961;-76
2022/11/20 08:00:26;;;;;;;23.87;14.78;;;;;;;-0.13;80.07;100363.84;1654317;84;20949;-76
2022/11/20 08:03:11;;;;;;;25.92;15.20;;;;;;;-0.13;80.03;100360.45;1651654;84;21260;-76
2022/11/20 08:06:00;;;;;;;27.62;14.83;;;;;;;-0.11;80.05;100360.08;1652331;84;21516;-76
2022/11/20 08:08:45;;;;;;;27.55;15.25;;;;;;;-0.10;80.01;100361.79;1632791;84;21014;-76
2022/11/20 08:14:33;;;;;;;25.30;14.78;;;;;;;-0.10;79.98;100357.98;1656428;84;21037;-76
2022/11/20 08:17:18;;;;;;;27.87;15.40;;;;;;;-0.10;79.98;100361.79;1659098;84;20921;-77
2022/11/20 08:20:04;;;;;;;24.50;14.85;;;;;;;-0.13;79.89;100363.84;1657287;84;21527;-77
2022/11/20 08:22:49;;;;;;;23.80;15.43;;;;;;;-0.14;79.94;100358.32;1658003;84;21442;-76
2022/11/20 08:25:36;;;;;;;28.30;15.05;;;;;;;-0.10;80.02;100355.02;1662116;84;20943;-77
2022/11/20 08:28:21;;;;;;;23.70;13.68;;;;;;;-0.12;79.88;100357.94;1659285;84;21987;-76
2022/11/20 08:31:06;;;;;;;23.20;14.53;;;;;;;-0.12;79.92;100355.40;1629005;85;21029;-76
2022/11/20 08:33:52;;;;;;;25.37;14.18;;;;;;;-0.13;79.91;100349.88;1620842;86;21000;-77
2022/11/20 08:36:37;;;;;;;27.37;14.68;;;;;;;-0.10;79.94;100351.63;1621816;86;21865;-76
2022/11/20 08:39:21;;;;;;;23.30;14.47;;;;;;;-0.08;79.88;100349.98;1597061;87;21388;-77
2022/11/20 08:42:10;;;;;;;22.42;14.53;;;;;;;-0.07;79.93;100348.73;1622468;86;20929;-77
2022/11/20 08:44:54;;;;;;;25.57;15.93;;;;;;;-0.05;79.86;100344.55;1620044;86;21389;-76
2022/11/20 08:47:39;;;;;;;23.50;14.63;;;;;;;-0.02;79.89;100346.30;1620751;86;20967;-76
2022/11/20 08:50:24;;;;;;;25.37;14.90;;;;;;;0.00;79.89;100341.67;1638032;85;20990;-76
2022/11/20 08:53:09;;;;;;;27.13;16.15;;;;;;;-0.01;79.85;100343.80;1637738;87;21360;-77
2022/11/20 08:55:54;;;;;;;27.17;16.52;;;;;;;0.03;79.92;100342.56;1637698;85;21061;-76
2022/11/20 08:58:39;;;;;;;27.87;16.48;;;;;;;0.05;79.87;100337.09;1612432;87;21037;-76
2022/11/20 09:01:24;;;;;;;27.77;15.50;;;;;;;0.07;79.93;100336.72;1614211;87;20998;-76
2022/11/20 09:04:11;;;;;;;26.48;16.50;;;;;;;0.06;79.84;100339.67;1606590;87;20940;-77
2022/11/20 09:06:56;;;;;;;25.05;15.95;;;;;;;0.06;79.85;100342.63;1604676;87;21576;-76
2022/11/20 09:09:41;;;;;;;32.13;17.07;;;;;;;0.06;79.89;100338.81;1607046;87;21344;-77
2022/11/20 09:12:26;;;;;;;29.18;17.12;;;;;;;0.06;79.86;100342.22;1607025;87;20965;-77
2022/11/20 09:15:11;;;;;;;27.42;16.85;;;;;;;0.04;79.87;100336.66;1607015;87;21017;-76
2022/11/20 09:18:01;;;;;;;28.75;16.97;;;;;;;0.06;79.91;100328.65;1605961;87;21028;-77
2022/11/20 09:20:46;;;;;;;29.40;17.70;;;;;;;0.05;79.89;100331.60;1605848;87;20933;-76
2022/11/20 09:23:34;;;;;;;29.98;17.17;;;;;;;0.07;79.94;100332.91;1607364;87;20981;-77
2022/11/20 09:26:19;;;;;;;30.43;17.42;;;;;;;0.10;80.04;100332.97;1607627;87;20925;-77
2022/11/20 09:29:04;;;;;;;31.35;18.40;;;;;;;0.13;80.00;100330.09;1607305;87;20988;-76
2022/11/20 09:31:48;;;;;;;31.10;18.37;;;;;;;0.13;79.95;100324.14;1606329;87;20994;-76
2022/11/20 09:34:33;;;;;;;34.18;19.27;;;;;;;0.15;80.00;100322.49;1608747;86;20992;-76
2022/11/20 09:37:18;;;;;;;35.80;19.80;;;;;;;0.16;79.99;100325.48;1617417;86;20997;-77
2022/11/20 09:40:05;;;;;;;31.15;18.35;;;;;;;0.18;80.00;100327.23;1620029;86;21540;-77
2022/11/20 09:43:29;;;;;;;33.13;18.98;;;;;;;0.22;80.01;100326.88;1616587;87;21343;-76
2022/11/20 09:46:52;;;;;;;37.67;19.77;;;;;;;0.30;80.06;100325.36;1617025;86;21000;-76
2022/11/20 09:50:09;;;;;;;33.25;18.48;;;;;;;0.32;79.95;100321.16;1616249;86;21965;-76
2022/11/20 09:53:05;;;;;;;36.42;19.48;;;;;;;0.38;80.01;100317.89;1597540;86;21076;-75
2022/11/20 09:55:50;;;;;;;34.45;19.32;;;;;;;0.42;79.95;100318.39;1612744;87;21411;-75
2022/11/20 09:58:45;;;;;;;34.43;18.73;;;;;;;0.47;79.97;100312.98;1650677;84;20925;-75
2022/11/20 10:01:34;;;;;;;31.70;18.65;;;;;;;0.51;79.99;100316.03;1655511;84;21566;-74
2022/11/20 10:04:21;;;;;;;33.08;18.92;;;;;;;0.55;79.96;100306.33;1621689;84;36175;-75
2022/11/20 10:07:16;;;;;;;29.48;17.25;;;;;;;0.61;80.00;100300.95;1627304;86;21004;-75
2022/11/20 10:10:01;;;;;;;33.08;19.85;;;;;;;0.66;79.94;100300.63;1608392;86;20917;-75
2022/11/20 10:13:12;;;;;;;32.20;19.25;;;;;;;0.72;79.96;100298.61;1629109;86;20940;-74
2022/11/20 10:16:20;;;;;;;31.30;18.45;;;;;;;0.76;79.94;100295.70;1626399;86;22039;-75
2022/11/20 10:19:17;;;;;;;34.70;17.42;;;;;;;0.79;79.92;100292.80;1628199;86;20977;-74
2022/11/20 10:22:26;;;;;;;29.23;17.45;;;;;;;0.84;79.93;100299.25;1591190;86;21049;-75
2022/11/20 10:25:41;;;;;;;31.87;18.05;;;;;;;0.83;79.80;100298.39;1631816;85;21063;-75
2022/11/20 10:28:44;;;;;;;28.05;16.57;;;;;;;0.86;79.90;100294.63;1628826;86;20989;-77
2022/11/20 10:31:40;;;;;;;31.10;17.17;;;;;;;0.86;79.83;100290.81;1520058;84;10000375;-75
2022/11/20 10:34:30;;;;;;;34.70;18.02;;;;;;;0.82;79.76;100298.36;1654814;84;25269;-75
2022/11/20 10:37:20;;;;;;;30.43;18.50;;;;;;;0.83;79.85;100292.44;1655604;85;21537;-75
2022/11/20 10:40:25;;;;;;;32.23;18.80;;;;;;;0.85;79.87;100293.33;1620897;87;21007;-76
2022/11/20 10:43:30;;;;;;;31.82;18.12;;;;;;;0.89;79.91;100285.78;1624491;86;21000;-75
2022/11/20 10:46:24;;;;;;;24.65;15.48;;;;;;;0.93;79.87;100271.41;1606204;86;21070;-75
2022/11/20 10:49:16;;;;;;;29.95;16.70;;;;;;;0.97;79.90;100278.27;1623739;86;21052;-75
2022/11/20 10:52:32;;;;;;;27.90;17.05;;;;;;;0.99;79.84;100280.43;1609687;86;21086;-75
2022/11/20 10:55:39;;;;;;;;;;;;;;;1.05;79.94;100279.64;1599315;86;20943;-75
2022/11/20 10:58:32;;;;;;;26.77;16.32;;;;;;;1.12;79.90;100277.23;1589682;87;20496;-75
2022/11/20 11:01:23;;;;;;;31.75;19.27;;;;;;;1.18;79.94;100278.60;1628765;86;21023;-75
2022/11/20 11:04:34;;;;;;;30.85;18.00;;;;;;;1.23;79.92;100282.50;1626474;86;20973;-76
2022/11/20 11:07:33;;;;;;;29.20;17.42;;;;;;;1.26;79.79;100280.86;1625657;86;21056;-75
2022/11/20 11:10:23;;;;;;;26.45;16.55;;;;;;;1.30;79.82;100280.49;1627339;85;21133;-76
2022/11/20 11:13:20;;;;;;;31.25;17.37;;;;;;;1.33;79.83;100277.58;1625110;86;22153;-77
2022/11/20 11:16:04;;;;;;;27.40;18.30;;;;;;;1.32;79.79;100282.23;1628726;86;21159;-76
2022/11/20 11:18:49;;;;;;;31.60;17.95;;;;;;;1.37;79.66;100280.17;1628052;86;21072;-74
2022/11/20 11:21:35;;;;;;;26.75;16.73;;;;;;;1.33;79.55;100271.63;1627559;86;21974;-74
2022/11/20 11:24:29;;;;;;;29.05;17.37;;;;;;;1.32;79.70;100274.59;1590034;88;26657;-74
2022/11/20 11:27:17;;;;;;;31.57;18.45;;;;;;;1.37;79.84;100266.17;1563359;89;21085;-75
2022/11/20 11:30:14;;;;;;;32.75;19.02;;;;;;;1.40;79.75;100277.67;1560183;89;21069;-75
2022/11/20 11:33:08;;;;;;;26.87;17.45;;;;;;;1.44;79.75;100275.63;1575412;89;21096;-76
2022/11/20 11:35:58;;;;;;;29.35;18.00;;;;;;;1.49;79.82;100268.91;1629105;86;21479;-76
2022/11/20 11:38:46;;;;;;;29.60;18.15;;;;;;;1.50;79.73;100265.11;1592664;87;21133;-77
2022/11/20 11:41:35;;;;;;;27.17;17.32;;;;;;;1.53;79.80;100273.22;1589663;88;21143;-78
2022/11/20 11:47:45;;;;;;;;;;;;;;;1.44;79.64;100266.28;1632302;86;21088;-79
2022/11/20 11:50:30;;;;;;;32.63;17.67;;;;;;;1.46;79.60;100273.95;1629492;86;20768;-79
2022/11/20 11:53:20;;;;;;;33.00;19.37;;;;;;;1.46;79.71;100266.31;1629572;86;21521;-78
2022/11/20 11:56:09;;;;;;;28.12;16.80;;;;;;;1.45;79.57;100267.14;1631159;85;21163;-78
2022/11/20 11:59:00;;;;;;;27.55;17.57;;;;;;;1.41;79.64;100257.32;1630285;85;21072;-78
2022/11/20 12:01:50;;;;;;;30.92;18.23;;;;;;;1.40;79.67;100256.88;1628357;86;21060;-79
2022/11/20 12:04:47;;;;;;;32.70;17.32;;;;;;;1.39;79.71;100248.80;1631092;85;21426;-77
2022/11/20 12:07:49;;;;;;;29.90;17.23;;;;;;;1.42;79.74;100254.36;1638925;86;20925;-80
2022/11/20 12:11:13;;;;;;;33.78;18.60;;;;;;;1.43;79.72;100243.34;1632664;85;21343;-78
2022/11/20 12:14:26;;;;;;;32.75;17.90;;;;;;;1.43;79.71;100250.56;1616288;86;21066;-77
2022/11/20 12:17:13;;;;;;;28.75;17.75;;;;;;;1.45;79.65;100250.17;1618191;86;21078;-77
2022/11/20 12:19:59;;;;;;;30.00;17.45;;;;;;;1.41;79.60;100250.09;1621884;86;21371;-78
2022/11/20 12:23:01;;;;;;;28.05;17.50;;;;;;;1.35;79.52;100247.45;1620240;86;21392;-77
2022/11/20 12:25:50;;;;;;;31.52;17.00;;;;;;;1.30;79.47;100246.11;1621001;86;21611;-79
2022/11/20 12:28:40;;;;;;;27.22;17.17;;;;;;;1.26;79.51;100249.03;1610776;86;21674;-78
2022/11/20 12:31:44;;;;;;;27.82;16.82;;;;;;;1.22;79.49;100249.81;1611094;86;21090;-78
2022/11/20 12:34:58;;;;;;;32.05;16.90;;;;;;;1.20;79.43;100241.29;1618914;86;21146;-78
2022/11/20 12:38:14;;;;;;;35.28;17.45;;;;;;;1.16;79.42;100240.80;1631305;86;21080;-80
2022/11/20 12:45:14;;;;;;;31.07;17.02;;;;;;;1.13;79.48;100235.66;1633458;86;21691;-80
2022/11/20 12:48:34;;;;;;;27.82;16.32;;;;;;;1.18;79.53;100228.09;1630167;86;21620;-79
2022/11/20 12:51:50;;;;;;;28.62;17.42;;;;;;;1.19;79.45;100229.39;1631354;86;21076;-79
2022/11/20 12:54:49;;;;;;;30.82;17.23;;;;;;;1.21;79.45;100221.77;1630631;86;21096;-79
2022/11/20 12:57:58;;;;;;;27.45;16.32;;;;;;;1.23;79.45;100215.88;1632360;86;21578;-79
2022/11/20 13:00:48;;;;;;;33.45;18.55;;;;;;;1.24;79.41;100210.36;1597239;87;21166;-79
2022/11/20 13:03:44;;;;;;;31.20;18.67;;;;;;;1.23;79.30;100220.97;1600934;87;21068;-81
2022/11/20 13:06:29;;;;;;;;;;;;;;;1.19;79.28;100216.66;1601748;87;21974;-79
2022/11/20 13:09:18;;;;;;;33.02;18.17;;;;;;;1.20;79.24;100214.55;1604399;85;20934;-78
2022/11/20 13:12:30;;;;;;;32.75;19.10;;;;;;;1.21;79.34;100210.31;1605358;87;21379;-78